createdAt,value
2017-07-27T05:31:28.163Z,99.99
2017-07-27T05:31:53.665Z,99.99
2017-07-27T05:32:19.139Z,99.99
2017-07-27T05:32:44.590Z,99.99
2017-07-27T05:33:10.062Z,99.99
2017-07-27T05:33:35.500Z,99.99
2017-07-27T05:34:00.941Z,99.99
2017-07-27T05:34:26.440Z,99.99
2017-07-27T05:34:51.874Z,99.99
2017-07-27T05:35:17.338Z,99.99
2017-07-27T05:35:42.823Z,99.99
2017-07-27T05:36:08.289Z,99.99
2017-07-27T05:36:33.723Z,99.99
2017-07-27T05:36:59.204Z,99.99
2017-07-27T05:37:24.637Z,99.99
2017-07-27T05:37:50.125Z,99.99
2017-07-27T05:38:15.622Z,99.99
2017-07-27T05:38:41.161Z,99.99
2017-07-27T05:39:06.578Z,99.99
2017-07-27T05:39:32.025Z,99.99
2017-07-27T05:39:57.510Z,99.99
2017-07-27T05:40:22.941Z,99.99
2017-07-27T05:40:48.410Z,99.99
2017-07-27T05:41:13.877Z,99.99
2017-07-27T05:41:39.475Z,99.99
2017-07-27T05:42:04.942Z,99.99
2017-07-27T05:42:30.431Z,99.99
2017-07-27T05:42:55.866Z,99.99
2017-07-27T05:43:21.333Z,99.99
2017-07-27T05:43:46.829Z,99.99
2017-07-27T05:44:12.273Z,99.99
2017-07-27T05:44:37.783Z,99.99
2017-07-27T05:45:03.256Z,99.99
2017-07-27T05:45:28.753Z,99.99
2017-07-27T05:45:54.239Z,99.99
2017-07-27T05:46:19.710Z,99.99
2017-07-27T05:46:45.164Z,99.99
2017-07-27T05:47:10.622Z,99.99
2017-07-27T05:47:36.102Z,99.99
2017-07-27T05:48:01.600Z,99.99
2017-07-27T05:48:27.042Z,99.99
2017-07-27T05:48:52.507Z,99.99
2017-07-27T05:49:18.022Z,99.99
2017-07-27T05:49:43.500Z,99.99
2017-07-27T05:50:08.940Z,99.99
2017-07-27T05:50:34.429Z,99.99
2017-07-27T05:50:59.914Z,99.99
2017-07-27T05:51:25.399Z,99.99
2017-07-27T05:51:50.857Z,99.99
2017-07-27T05:52:16.336Z,99.99
2017-07-27T05:52:41.819Z,99.99
2017-07-27T05:53:07.278Z,99.99
2017-07-27T05:53:32.777Z,99.99
2017-07-27T05:53:58.247Z,99.99
2017-07-27T05:54:23.708Z,99.99
2017-07-27T05:54:49.233Z,99.99
2017-07-27T05:55:14.709Z,99.99
2017-07-27T05:55:40.203Z,99.99
2017-07-27T05:56:05.713Z,99.99
2017-07-27T05:56:31.175Z,99.99
2017-07-27T05:56:56.649Z,99.99
2017-07-27T05:57:22.143Z,99.99
2017-07-27T05:57:47.624Z,99.99
2017-07-27T05:58:13.092Z,99.99
2017-07-27T05:58:38.577Z,99.99
2017-07-27T05:59:04.093Z,99.99
2017-07-27T05:59:29.561Z,99.99
2017-07-27T05:59:55.045Z,99.99
2017-07-27T06:00:20.492Z,99.99
2017-07-27T06:00:46.029Z,99.99
2017-07-27T06:01:11.708Z,99.99
2017-07-27T06:01:37.100Z,99.99
2017-07-27T06:02:02.696Z,99.99
2017-07-27T06:02:28.267Z,99.99
2017-07-27T06:02:53.752Z,99.99
2017-07-27T06:03:19.250Z,99.99
2017-07-27T06:03:44.819Z,99.99
2017-07-27T06:04:10.367Z,99.99
2017-07-27T06:04:35.830Z,99.99
2017-07-27T06:05:01.312Z,99.99
2017-07-27T06:05:26.815Z,99.99
2017-07-27T06:05:52.263Z,99.99
2017-07-27T06:06:17.803Z,99.99
2017-07-27T06:06:43.309Z,99.99
2017-07-27T06:07:08.784Z,99.99
2017-07-27T06:07:34.261Z,99.99
2017-07-27T06:07:59.732Z,99.99
2017-07-27T06:08:25.261Z,99.99
2017-07-27T06:08:50.739Z,99.99
2017-07-27T06:09:16.188Z,99.99
2017-07-27T06:09:41.647Z,99.99
2017-07-27T06:10:07.238Z,99.99
2017-07-27T06:10:32.668Z,99.99
2017-07-27T06:10:58.193Z,99.99
2017-07-27T06:11:23.730Z,99.99
2017-07-27T06:11:49.286Z,99.99
2017-07-27T06:12:14.787Z,99.99
2017-07-27T06:12:40.303Z,99.99
2017-07-27T06:13:05.722Z,99.99
2017-07-27T06:13:31.219Z,99.99
2017-07-27T06:13:56.737Z,99.99
2017-07-27T06:14:22.172Z,99.99
2017-07-27T06:14:47.653Z,99.99
2017-07-27T06:15:13.113Z,99.99
2017-07-27T06:15:38.551Z,99.99
2017-07-27T06:16:04.013Z,99.99
2017-07-27T06:16:29.498Z,99.99
2017-07-27T06:16:54.958Z,99.99
2017-07-27T06:17:20.470Z,99.99
2017-07-27T06:17:45.941Z,99.99
2017-07-27T06:18:11.411Z,99.99
2017-07-27T06:18:36.875Z,99.99
2017-07-27T06:19:02.378Z,99.99
2017-07-27T06:19:27.877Z,99.99
2017-07-27T06:19:53.365Z,99.99
2017-07-27T06:20:18.805Z,99.99
2017-07-27T06:20:44.277Z,99.99
2017-07-27T06:21:09.744Z,99.99
2017-07-27T06:21:35.191Z,99.99
2017-07-27T06:22:00.659Z,99.99
2017-07-27T06:22:26.157Z,99.99
2017-07-27T06:22:51.656Z,99.99
2017-07-27T06:23:17.139Z,99.99
2017-07-27T06:23:42.597Z,99.99
2017-07-27T06:24:08.080Z,99.99
2017-07-27T06:24:33.538Z,99.99
2017-07-27T06:24:59.001Z,99.99
2017-07-27T06:25:24.462Z,99.99
2017-07-27T06:25:49.995Z,99.99
2017-07-27T06:26:15.470Z,99.99
2017-07-27T06:26:40.932Z,99.99
2017-07-27T06:27:06.410Z,99.99
2017-07-27T06:27:31.883Z,99.99
2017-07-27T06:27:57.371Z,99.99
2017-07-27T06:28:22.825Z,99.99
2017-07-27T06:28:48.533Z,99.99
2017-07-27T06:29:13.953Z,99.99
2017-07-27T06:29:39.410Z,99.99
2017-07-27T06:30:04.936Z,99.99
2017-07-27T06:30:30.414Z,99.99
2017-07-27T06:30:55.949Z,99.99
2017-07-27T06:31:21.413Z,99.99
2017-07-27T06:31:46.933Z,99.99
2017-07-27T06:32:12.440Z,99.99
2017-07-27T06:32:37.904Z,99.99
2017-07-27T06:33:03.365Z,99.99
2017-07-27T06:33:28.848Z,99.99
2017-07-27T06:33:54.338Z,99.99
2017-07-27T06:34:19.856Z,99.99
2017-07-27T06:34:45.306Z,99.99
2017-07-27T06:35:10.858Z,99.99
2017-07-27T06:35:36.331Z,99.99
2017-07-27T06:36:01.801Z,99.99
2017-07-27T06:36:27.311Z,99.99
2017-07-27T06:36:52.838Z,99.99
2017-07-27T06:37:18.309Z,99.99
2017-07-27T06:37:43.769Z,99.99
2017-07-27T06:38:09.274Z,99.99
2017-07-27T06:38:34.746Z,99.99
2017-07-27T06:39:00.222Z,99.99
2017-07-27T06:39:25.714Z,99.99
2017-07-27T06:39:51.207Z,99.99
2017-07-27T06:40:16.679Z,99.99
2017-07-27T06:40:42.174Z,99.99
2017-07-27T06:41:07.659Z,99.99
2017-07-27T06:41:33.105Z,99.99
2017-07-27T06:41:58.580Z,99.99
2017-07-27T06:42:24.061Z,99.99
2017-07-27T06:42:49.544Z,99.99
2017-07-27T06:43:15.011Z,99.99
2017-07-27T06:43:40.498Z,99.99
2017-07-27T06:44:05.969Z,99.99
2017-07-27T06:44:31.411Z,99.99
2017-07-27T06:44:56.875Z,99.99
2017-07-27T06:45:22.352Z,99.99
2017-07-27T06:45:47.823Z,99.99
2017-07-27T06:46:13.303Z,99.99
2017-07-27T06:46:38.761Z,99.99
2017-07-27T06:47:04.238Z,99.99
2017-07-27T06:47:29.725Z,99.99
2017-07-27T06:47:55.194Z,99.99
2017-07-27T06:48:20.685Z,99.99
2017-07-27T06:48:46.159Z,99.99
2017-07-27T06:49:11.636Z,99.99
2017-07-27T06:49:37.079Z,99.99
2017-07-27T06:50:02.547Z,99.99
2017-07-27T06:50:28.013Z,99.99
2017-07-27T06:50:53.511Z,99.99
2017-07-27T06:51:19.010Z,99.99
2017-07-27T06:51:44.504Z,99.99
2017-07-27T06:52:09.992Z,99.99
2017-07-27T06:52:35.466Z,99.99
2017-07-27T06:53:00.931Z,99.99
2017-07-27T06:53:26.412Z,99.99
2017-07-27T06:53:51.908Z,99.99
2017-07-27T06:54:17.397Z,99.99
2017-07-27T06:54:42.881Z,99.99
2017-07-27T06:55:08.394Z,99.99
2017-07-27T06:55:33.883Z,99.99
2017-07-27T06:55:59.408Z,99.99
2017-07-27T06:56:24.878Z,99.99
2017-07-27T06:56:50.401Z,99.99
2017-07-27T06:57:15.928Z,99.99
2017-07-27T06:57:41.437Z,99.99
2017-07-27T06:58:06.913Z,99.99
2017-07-27T06:58:32.396Z,99.99
2017-07-27T06:58:57.887Z,99.99
2017-07-27T06:59:23.370Z,99.99
2017-07-27T06:59:48.804Z,99.99
2017-07-27T07:00:14.295Z,99.99
2017-07-27T07:00:39.765Z,99.99
2017-07-27T07:01:05.272Z,99.99
2017-07-27T07:01:30.744Z,99.99
2017-07-27T07:01:56.212Z,99.99
2017-07-27T07:02:21.679Z,99.99
2017-07-27T07:02:47.141Z,99.99
2017-07-27T07:03:12.639Z,99.99
2017-07-27T07:03:38.108Z,99.99
2017-07-27T07:04:03.565Z,99.99
2017-07-27T07:04:29.039Z,99.99
2017-07-27T07:04:54.524Z,99.99
2017-07-27T07:05:19.986Z,99.99
2017-07-27T07:05:45.463Z,99.99
2017-07-27T07:06:10.888Z,99.99
2017-07-27T07:06:36.353Z,99.99
2017-07-27T07:07:01.814Z,99.99
2017-07-27T07:07:27.301Z,99.99
2017-07-27T07:07:52.781Z,99.99
2017-07-27T07:08:18.225Z,99.99
2017-07-27T07:08:43.698Z,99.99
2017-07-27T07:09:09.199Z,99.99
2017-07-27T07:09:34.663Z,99.99
2017-07-27T07:10:00.118Z,99.99
2017-07-27T07:10:25.596Z,99.99
2017-07-27T07:10:51.059Z,99.99
2017-07-27T07:11:16.575Z,99.99
2017-07-27T07:11:42.049Z,99.99
2017-07-27T07:12:07.499Z,99.99
2017-07-27T07:12:32.968Z,99.99
2017-07-27T07:12:58.420Z,99.99
2017-07-27T07:13:23.885Z,99.99
2017-07-27T07:13:49.382Z,99.99
2017-07-27T07:14:14.857Z,99.99
2017-07-27T07:14:40.343Z,99.99
2017-07-27T07:15:05.785Z,99.99
2017-07-27T07:15:31.252Z,99.99
2017-07-27T07:15:56.734Z,99.99
2017-07-27T07:16:22.205Z,99.99
2017-07-27T07:16:47.718Z,99.99
2017-07-27T07:17:13.187Z,99.99
2017-07-27T07:17:38.706Z,99.99
2017-07-27T07:18:04.271Z,99.99
2017-07-27T07:18:29.769Z,99.99
2017-07-27T07:18:55.261Z,99.99
2017-07-27T07:19:20.749Z,99.99
2017-07-27T07:19:46.257Z,99.99
2017-07-27T07:20:11.740Z,99.99
2017-07-27T07:20:37.227Z,99.99
2017-07-27T07:21:02.735Z,99.99
2017-07-27T07:21:28.219Z,99.99
2017-07-27T07:21:53.712Z,99.99
2017-07-27T07:22:19.176Z,99.99
2017-07-27T07:22:44.686Z,99.99
2017-07-27T07:23:10.216Z,99.99
2017-07-27T07:23:35.702Z,99.99
2017-07-27T07:24:01.146Z,99.99
2017-07-27T07:24:26.624Z,99.99
2017-07-27T07:24:52.133Z,99.99
2017-07-27T07:25:17.633Z,99.99
2017-07-27T07:25:43.130Z,99.99
2017-07-27T07:26:08.620Z,99.99
2017-07-27T07:26:34.088Z,99.99
2017-07-27T07:26:59.569Z,99.99
2017-07-27T07:27:25.010Z,99.99
2017-07-27T07:27:50.542Z,99.99
2017-07-27T07:28:16.003Z,99.99
2017-07-27T07:28:41.497Z,99.99
2017-07-27T07:29:06.980Z,99.99
2017-07-27T07:29:32.484Z,99.99
2017-07-27T07:29:57.957Z,99.99
2017-07-27T07:30:23.490Z,99.99
2017-07-27T07:30:48.995Z,99.99
2017-07-27T07:31:14.477Z,99.99
2017-07-27T07:31:39.959Z,99.99
2017-07-27T07:32:05.445Z,99.99
2017-07-27T07:32:30.964Z,99.99
2017-07-27T07:32:56.428Z,99.99
2017-07-27T07:33:22.021Z,99.99
2017-07-27T07:33:47.486Z,99.99
2017-07-27T07:34:12.960Z,99.99
2017-07-27T07:34:38.441Z,99.99
2017-07-27T07:35:03.942Z,99.99
2017-07-27T07:35:29.404Z,99.99
2017-07-27T07:35:54.880Z,99.99
2017-07-27T07:36:20.364Z,99.99
2017-07-27T07:36:45.815Z,99.99
2017-07-27T07:37:11.273Z,99.99
2017-07-27T07:37:36.754Z,99.99
2017-07-27T07:38:02.256Z,99.99
2017-07-27T07:38:27.718Z,99.99
2017-07-27T07:38:53.217Z,99.99
2017-07-27T07:39:18.718Z,99.99
2017-07-27T07:39:44.196Z,99.99
2017-07-27T07:40:09.636Z,99.99
2017-07-27T07:40:35.123Z,99.99
2017-07-27T07:41:00.604Z,99.99
2017-07-27T07:41:26.059Z,99.99
2017-07-27T07:41:51.531Z,99.99
2017-07-27T07:42:17.015Z,99.99
2017-07-27T07:42:42.487Z,99.99
2017-07-27T07:43:07.967Z,99.99
2017-07-27T07:43:33.533Z,99.99
2017-07-27T07:43:58.993Z,99.99
2017-07-27T07:44:24.470Z,99.99
2017-07-27T07:44:49.938Z,99.99
2017-07-27T07:45:15.406Z,99.99
2017-07-27T07:45:40.885Z,99.99
2017-07-27T07:46:06.337Z,99.99
2017-07-27T07:46:31.795Z,99.99
2017-07-27T07:46:57.273Z,99.99
2017-07-27T07:47:22.778Z,99.99
2017-07-27T07:47:48.260Z,99.99
2017-07-27T07:48:13.758Z,99.99
2017-07-27T07:48:39.252Z,99.99
2017-07-27T07:49:04.730Z,99.99
2017-07-27T07:49:30.223Z,99.99
2017-07-27T07:49:55.746Z,99.99
2017-07-27T07:50:21.257Z,99.99
2017-07-27T07:50:46.731Z,99.99
2017-07-27T07:51:12.197Z,99.99
2017-07-27T07:51:37.666Z,99.99
2017-07-27T07:52:03.155Z,99.99
2017-07-27T07:52:28.698Z,99.99
2017-07-27T07:52:54.155Z,99.99
2017-07-27T07:53:19.639Z,99.99
2017-07-27T07:53:45.120Z,99.99
2017-07-27T07:54:10.592Z,99.99
2017-07-27T07:54:36.063Z,99.99
2017-07-27T07:55:01.553Z,99.99
2017-07-27T07:55:27.021Z,99.99
2017-07-27T07:55:52.501Z,99.99
2017-07-27T07:56:18.010Z,99.99
2017-07-27T07:56:43.492Z,99.99
2017-07-27T07:57:09.054Z,99.99
2017-07-27T07:57:34.630Z,99.99
2017-07-27T07:58:00.102Z,99.99
2017-07-27T07:58:25.590Z,99.99
2017-07-27T07:58:51.081Z,99.99
2017-07-27T07:59:16.525Z,99.99
2017-07-27T07:59:41.984Z,99.99
2017-07-27T08:00:07.453Z,99.99
2017-07-27T08:00:32.937Z,99.99
2017-07-27T08:00:58.431Z,99.99
2017-07-27T08:01:23.919Z,99.99
2017-07-27T08:01:49.407Z,99.99
2017-07-27T08:02:14.877Z,99.99
2017-07-27T08:02:40.366Z,99.99
2017-07-27T08:03:05.838Z,99.99
2017-07-27T08:03:31.317Z,99.99
2017-07-27T08:03:56.795Z,99.99
2017-07-27T08:04:22.266Z,99.99
2017-07-27T08:04:47.756Z,99.99
2017-07-27T08:05:13.237Z,99.99
2017-07-27T08:05:38.674Z,99.99
2017-07-27T08:06:04.165Z,99.99
2017-07-27T08:06:29.636Z,99.99
2017-07-27T08:06:55.115Z,99.99
2017-07-27T08:07:20.575Z,99.99
2017-07-27T08:07:46.076Z,99.99
2017-07-27T08:08:11.581Z,99.99
2017-07-27T08:08:37.057Z,99.99
2017-07-27T08:09:02.530Z,99.99
2017-07-27T08:09:28.003Z,99.99
2017-07-27T08:09:53.501Z,99.99
2017-07-27T08:10:18.941Z,99.99
2017-07-27T08:10:44.413Z,99.99
2017-07-27T08:11:09.916Z,99.99
2017-07-27T08:11:35.393Z,99.99
2017-07-27T08:12:00.900Z,99.99
2017-07-27T08:12:26.402Z,99.99
2017-07-27T08:12:51.883Z,99.99
2017-07-27T08:13:17.361Z,99.99
2017-07-27T08:13:42.823Z,99.99
2017-07-27T08:14:08.336Z,99.99
2017-07-27T08:14:33.807Z,99.99
2017-07-27T08:14:59.296Z,99.99
2017-07-27T08:15:24.812Z,99.99
2017-07-27T08:15:50.297Z,99.99
2017-07-27T08:16:15.781Z,99.99
2017-07-27T08:16:41.243Z,99.99
2017-07-27T08:17:06.683Z,99.99
2017-07-27T08:17:32.140Z,99.99
2017-07-27T08:17:57.594Z,99.99
2017-07-27T08:18:23.080Z,99.99
2017-07-27T08:18:48.564Z,99.99
2017-07-27T08:19:14.034Z,99.99
2017-07-27T08:19:39.493Z,99.99
2017-07-27T08:20:04.950Z,99.99
2017-07-27T08:20:30.477Z,99.99
2017-07-27T08:20:55.929Z,99.99
2017-07-27T08:21:21.405Z,99.99
2017-07-27T08:21:46.860Z,99.99
2017-07-27T08:22:12.343Z,99.99
2017-07-27T08:22:37.817Z,99.99
2017-07-27T08:23:03.299Z,99.99
2017-07-27T08:23:28.759Z,99.99
2017-07-27T08:23:54.222Z,99.99
2017-07-27T08:24:19.688Z,99.99
2017-07-27T08:24:45.183Z,99.99
2017-07-27T08:25:10.661Z,99.99
2017-07-27T08:25:36.137Z,99.99
2017-07-27T08:26:01.620Z,99.99
2017-07-27T08:26:27.113Z,99.99
2017-07-27T08:26:52.579Z,99.99
2017-07-27T08:27:18.091Z,99.99
2017-07-27T08:27:43.625Z,99.99
2017-07-27T08:28:09.105Z,99.99
2017-07-27T08:28:34.553Z,99.99
2017-07-27T08:29:00.021Z,99.99
2017-07-27T08:29:25.541Z,99.99
2017-07-27T08:29:51.005Z,99.99
2017-07-27T08:30:16.471Z,99.99
2017-07-27T08:30:42.015Z,99.99
2017-07-27T08:31:07.497Z,99.99
2017-07-27T08:31:32.973Z,99.99
2017-07-27T08:31:58.429Z,99.99
2017-07-27T08:32:23.918Z,99.99
2017-07-27T08:32:49.381Z,99.99
2017-07-27T08:33:14.853Z,99.99
2017-07-27T08:33:40.299Z,99.99
2017-07-27T08:34:05.765Z,99.99
2017-07-27T08:34:31.254Z,99.99
2017-07-27T08:34:56.736Z,99.99
2017-07-27T08:35:22.309Z,99.99
2017-07-27T08:35:47.809Z,99.99
2017-07-27T08:36:13.284Z,99.99
2017-07-27T08:36:38.757Z,99.99
2017-07-27T08:37:04.252Z,99.99
2017-07-27T08:37:29.728Z,99.99
2017-07-27T08:37:55.199Z,99.99
2017-07-27T08:38:20.677Z,98.29
2017-07-27T08:38:46.182Z,99.35
2017-07-27T08:39:11.643Z,98.97
2017-07-27T08:39:37.106Z,99.07
2017-07-27T08:40:02.584Z,98.87
2017-07-27T08:40:28.059Z,99.07
2017-07-27T08:40:53.538Z,98.39
2017-07-27T08:41:19.019Z,98.1
2017-07-27T08:41:44.502Z,98
2017-07-27T08:42:09.949Z,96.75
2017-07-27T08:42:35.466Z,95.98
2017-07-27T08:43:00.929Z,96.66
2017-07-27T08:43:26.394Z,95.01
2017-07-27T08:43:51.902Z,93.28
2017-07-27T08:44:17.378Z,93.47
2017-07-27T08:44:42.817Z,94.73
2017-07-27T08:45:08.324Z,94.82
2017-07-27T08:45:33.792Z,94.82
2017-07-27T08:45:59.263Z,95.01
2017-07-27T08:46:24.706Z,95.01
2017-07-27T08:46:50.167Z,95.88
2017-07-27T08:47:15.638Z,95.88
2017-07-27T08:47:41.150Z,95.88
2017-07-27T08:48:06.611Z,95.4
2017-07-27T08:48:32.095Z,95.98
2017-07-27T08:48:57.593Z,95.88
2017-07-27T08:49:23.079Z,95.98
2017-07-27T08:49:48.559Z,95.88
2017-07-27T08:50:14.020Z,95.21
2017-07-27T08:50:39.476Z,94.15
2017-07-27T08:51:04.981Z,94.63
2017-07-27T08:51:30.437Z,95.25
2017-07-27T08:51:55.962Z,95.16
2017-07-27T08:52:21.440Z,96.12
2017-07-27T08:52:46.939Z,95.54
2017-07-27T08:53:12.422Z,95.93
2017-07-27T08:53:37.875Z,94.87
2017-07-27T08:54:03.339Z,94.87
2017-07-27T08:54:28.785Z,95.25
2017-07-27T08:54:54.232Z,94.87
2017-07-27T08:55:19.761Z,95.64
2017-07-27T08:55:45.230Z,95.93
2017-07-27T08:56:10.691Z,96.41
2017-07-27T08:56:36.229Z,95.93
2017-07-27T08:57:01.720Z,96.7
2017-07-27T08:57:27.211Z,96.8
2017-07-27T08:57:52.706Z,96.61
2017-07-27T08:58:18.189Z,96.61
2017-07-27T08:58:43.684Z,96.12
2017-07-27T08:59:09.131Z,95.98
2017-07-27T08:59:34.602Z,94.82
2017-07-27T09:00:00.114Z,94.62
2017-07-27T09:00:25.596Z,95.06
2017-07-27T09:00:51.048Z,95.83
2017-07-27T09:01:16.538Z,94.92
2017-07-27T09:01:42.044Z,94.29
2017-07-27T09:02:07.532Z,94.48
2017-07-27T09:02:33.005Z,93.8
2017-07-27T09:02:58.482Z,93.9
2017-07-27T09:03:23.958Z,93.62
2017-07-27T09:03:49.416Z,93.8
2017-07-27T09:04:14.888Z,94.2
2017-07-27T09:04:40.389Z,94
2017-07-27T09:05:05.840Z,94
2017-07-27T09:05:31.303Z,92.46
2017-07-27T09:05:56.791Z,92.94
2017-07-27T09:06:22.284Z,93.71
2017-07-27T09:06:47.768Z,93.08
2017-07-27T09:07:13.255Z,93.76
2017-07-27T09:07:38.737Z,94.15
2017-07-27T09:08:04.239Z,94.15
2017-07-27T09:08:29.752Z,94.43
2017-07-27T09:08:55.218Z,93.95
2017-07-27T09:09:20.715Z,93.08
2017-07-27T09:09:46.201Z,92.12
2017-07-27T09:10:11.694Z,92.22
2017-07-27T09:10:37.165Z,93.28
2017-07-27T09:11:02.627Z,93.47
2017-07-27T09:11:28.087Z,93.76
2017-07-27T09:11:53.551Z,93.52
2017-07-27T09:12:19.019Z,93.62
2017-07-27T09:12:44.495Z,93.62
2017-07-27T09:13:09.958Z,94.29
2017-07-27T09:13:35.411Z,93.71
2017-07-27T09:14:00.903Z,93.62
2017-07-27T09:14:26.380Z,92.65
2017-07-27T09:14:51.891Z,93.04
2017-07-27T09:15:17.377Z,91.98
2017-07-27T09:15:42.838Z,92.75
2017-07-27T09:16:08.294Z,93.04
2017-07-27T09:16:33.744Z,93.81
2017-07-27T09:16:59.219Z,93.76
2017-07-27T09:17:24.695Z,93.76
2017-07-27T09:17:50.180Z,93.47
2017-07-27T09:18:15.645Z,94.05
2017-07-27T09:18:41.123Z,94.82
2017-07-27T09:19:06.569Z,94.73
2017-07-27T09:19:32.052Z,94.82
2017-07-27T09:19:57.564Z,94.34
2017-07-27T09:20:23.029Z,93.76
2017-07-27T09:20:48.496Z,93.52
2017-07-27T09:21:13.948Z,92.26
2017-07-27T09:21:39.407Z,91.78
2017-07-27T09:22:04.888Z,92.07
2017-07-27T09:22:30.404Z,92.26
2017-07-27T09:22:55.875Z,93.42
2017-07-27T09:23:21.343Z,92.94
2017-07-27T09:23:46.791Z,92.94
2017-07-27T09:24:12.275Z,92.46
2017-07-27T09:24:37.764Z,92.36
2017-07-27T09:25:03.265Z,91.59
2017-07-27T09:25:28.729Z,91.39
2017-07-27T09:25:54.202Z,91.49
2017-07-27T09:26:19.666Z,91.49
2017-07-27T09:26:45.125Z,91.39
2017-07-27T09:27:10.616Z,91.39
2017-07-27T09:27:36.095Z,91.49
2017-07-27T09:28:01.570Z,91.39
2017-07-27T09:28:27.116Z,90.37
2017-07-27T09:28:52.586Z,90.77
2017-07-27T09:29:18.091Z,91.15
2017-07-27T09:29:43.558Z,90.77
2017-07-27T09:30:09.037Z,89.89
2017-07-27T09:30:34.496Z,90.09
2017-07-27T09:30:59.941Z,90.37
2017-07-27T09:31:25.430Z,90.57
2017-07-27T09:31:50.901Z,90.28
2017-07-27T09:32:16.364Z,90.37
2017-07-27T09:32:41.861Z,90.86
2017-07-27T09:33:07.346Z,90.67
2017-07-27T09:33:32.810Z,91.39
2017-07-27T09:33:58.255Z,92.65
2017-07-27T09:34:23.716Z,91.19
2017-07-27T09:34:49.168Z,90.23
2017-07-27T09:35:14.698Z,89.75
2017-07-27T09:35:40.161Z,89.65
2017-07-27T09:36:05.665Z,90.23
2017-07-27T09:36:31.147Z,90.61
2017-07-27T09:36:56.636Z,90.13
2017-07-27T09:37:22.077Z,88.87
2017-07-27T09:38:30.772Z,89.11
2017-07-27T09:38:56.299Z,88.78
2017-07-27T09:39:21.779Z,88.68
2017-07-27T09:39:47.267Z,89.21
2017-07-27T09:40:12.723Z,87.47
2017-07-27T09:40:38.190Z,87.27
2017-07-27T09:41:03.640Z,87.76
2017-07-27T09:41:29.092Z,87.95
2017-07-27T09:41:54.552Z,88.05
2017-07-27T09:42:20.067Z,86.69
2017-07-27T09:42:45.518Z,86.99
2017-07-27T09:43:11.003Z,86.41
2017-07-27T09:43:36.487Z,86.51
2017-07-27T09:44:01.998Z,85.93
2017-07-27T09:44:27.465Z,85.35
2017-07-27T09:44:52.916Z,85.25
2017-07-27T09:45:18.412Z,85.53
2017-07-27T09:45:43.897Z,85.63
2017-07-27T09:46:09.325Z,84.67
2017-07-27T09:46:34.782Z,83.7
2017-07-27T09:47:00.247Z,84.38
2017-07-27T09:47:25.727Z,84.47
2017-07-27T09:47:51.187Z,83.61
2017-07-27T09:48:16.670Z,83.12
2017-07-27T09:48:42.123Z,82.73
2017-07-27T09:49:07.590Z,82.64
2017-07-27T09:49:33.082Z,83.22
2017-07-27T09:49:58.590Z,83.8
2017-07-27T09:50:24.053Z,83.89
2017-07-27T09:50:49.536Z,84.67
2017-07-27T09:51:15.013Z,85.05
2017-07-27T09:51:40.443Z,85.25
2017-07-27T09:52:05.947Z,84.86
2017-07-27T09:52:31.438Z,84.47
2017-07-27T09:52:56.905Z,83.7
2017-07-27T09:53:22.380Z,82.83
2017-07-27T09:53:47.836Z,82.06
2017-07-27T09:54:13.307Z,82.54
2017-07-27T09:54:38.772Z,82.15
2017-07-27T09:55:04.238Z,80.32
2017-07-27T09:55:29.692Z,79.74
2017-07-27T09:55:55.157Z,80.71
2017-07-27T09:56:20.612Z,81.19
2017-07-27T09:56:46.085Z,80.99
2017-07-27T09:57:11.544Z,81.96
2017-07-27T09:57:37.049Z,82.45
2017-07-27T09:58:02.531Z,82.15
2017-07-27T09:58:27.958Z,82.58
2017-07-27T09:58:53.493Z,82.58
2017-07-27T09:59:18.965Z,82.97
2017-07-27T09:59:44.396Z,83.16
2017-07-27T10:00:09.869Z,82.78
2017-07-27T10:00:35.355Z,81.71
2017-07-27T10:01:00.824Z,80.84
2017-07-27T10:01:26.332Z,80.49
2017-07-27T10:01:51.832Z,80.49
2017-07-27T10:02:17.281Z,80.3
2017-07-27T10:02:42.747Z,81.46
2017-07-27T10:03:08.211Z,81.56
2017-07-27T10:03:33.705Z,79.91
2017-07-27T10:03:59.170Z,78.36
2017-07-27T10:04:24.665Z,78.46
2017-07-27T10:04:50.124Z,78.46
2017-07-27T10:05:15.595Z,79.43
2017-07-27T10:05:41.045Z,80.11
2017-07-27T10:06:06.530Z,79.27
2017-07-27T10:06:32.009Z,79.08
2017-07-27T10:06:57.499Z,78.27
2017-07-27T10:07:22.955Z,76.91
2017-07-27T10:07:48.445Z,77.92
2017-07-27T10:08:13.883Z,77.73
2017-07-27T10:08:39.367Z,77.63
2017-07-27T10:09:04.817Z,77.82
2017-07-27T10:09:30.283Z,78.21
2017-07-27T10:09:55.785Z,78.31
2017-07-27T10:10:21.223Z,78.85
2017-07-27T10:10:46.719Z,79.24
2017-07-27T10:11:12.207Z,79.04
2017-07-27T10:11:37.713Z,79.24
2017-07-27T10:12:03.166Z,79.52
2017-07-27T10:12:28.642Z,79.62
2017-07-27T10:12:54.114Z,78.36
2017-07-27T10:13:19.605Z,78.46
2017-07-27T10:13:45.050Z,78.08
2017-07-27T10:14:10.532Z,77.4
2017-07-27T10:14:35.983Z,78.33
2017-07-27T10:15:01.432Z,78.23
2017-07-27T10:15:26.894Z,78.71
2017-07-27T10:15:52.375Z,78.81
2017-07-27T10:16:17.868Z,79.49
2017-07-27T10:16:43.333Z,79.2
2017-07-27T10:17:08.786Z,79.39
2017-07-27T10:17:34.279Z,80.46
2017-07-27T10:17:59.746Z,80.61
2017-07-27T10:18:25.247Z,79.83
2017-07-27T10:18:50.739Z,79.45
2017-07-27T10:19:16.236Z,78.19
2017-07-27T10:19:41.699Z,78
2017-07-27T10:20:07.172Z,78.87
2017-07-27T10:20:32.677Z,79.74
2017-07-27T10:20:58.163Z,80.22
2017-07-27T10:21:23.627Z,76.93
2017-07-27T10:21:49.080Z,77.32
2017-07-27T10:22:14.509Z,78
2017-07-27T10:22:39.995Z,77.71
2017-07-27T10:23:05.463Z,77.22
2017-07-27T10:23:30.964Z,77.22
2017-07-27T10:23:56.430Z,77.61
2017-07-27T10:24:21.910Z,77.22
2017-07-27T10:24:47.365Z,77.22
2017-07-27T10:25:12.880Z,77.8
2017-07-27T10:25:38.463Z,77.22
2017-07-27T10:26:03.920Z,77.32
2017-07-27T10:26:29.405Z,77.71
2017-07-27T10:26:54.905Z,78.48
2017-07-27T10:27:20.369Z,78.19
2017-07-27T10:27:45.815Z,78.87
2017-07-27T10:28:11.301Z,78.87
2017-07-27T10:28:36.762Z,78.96
2017-07-27T10:29:02.293Z,78
2017-07-27T10:29:27.738Z,76.35
2017-07-27T10:29:53.259Z,76.26
2017-07-27T10:30:18.734Z,76.35
2017-07-27T10:30:44.192Z,75.68
2017-07-27T10:31:09.635Z,75.1
2017-07-27T10:31:35.120Z,75.48
2017-07-27T10:32:00.561Z,76.55
2017-07-27T10:32:58.554Z,76.64
2017-07-27T10:33:24.032Z,76.84
2017-07-27T10:33:49.475Z,77.13
2017-07-27T10:34:14.946Z,77.71
2017-07-27T10:34:40.428Z,77.61
2017-07-27T10:35:05.920Z,77.61
2017-07-27T10:35:31.373Z,77.51
2017-07-27T10:35:56.879Z,77.36
2017-07-27T10:36:22.317Z,77.26
2017-07-27T10:36:47.765Z,76.78
2017-07-27T10:37:13.230Z,77.07
2017-07-27T10:37:38.658Z,77.65
2017-07-27T10:38:04.122Z,77.65
2017-07-27T10:38:29.626Z,77.45
2017-07-27T10:38:55.135Z,76.97
2017-07-27T10:39:20.634Z,75.81
2017-07-27T10:39:46.099Z,76.24
2017-07-27T10:40:11.591Z,76.33
2017-07-27T10:40:37.073Z,75.46
2017-07-27T10:41:02.535Z,75.37
2017-07-27T10:41:28.023Z,74.98
2017-07-27T10:41:53.487Z,74.3
2017-07-27T10:42:18.986Z,74.21
2017-07-27T10:42:44.451Z,74.63
2017-07-27T10:43:09.910Z,74.82
2017-07-27T10:43:35.397Z,74.24
2017-07-27T10:44:00.865Z,74.34
2017-07-27T10:44:26.349Z,74.43
2017-07-27T10:44:51.849Z,73.47
2017-07-27T10:45:17.451Z,72.3
2017-07-27T10:45:42.957Z,71.24
2017-07-27T10:46:08.417Z,71.72
2017-07-27T10:46:33.899Z,72.5
2017-07-27T10:46:59.398Z,72.66
2017-07-27T10:47:24.891Z,73.27
2017-07-27T10:47:50.348Z,72.6
2017-07-27T10:48:15.813Z,72.79
2017-07-27T10:48:41.298Z,72.98
2017-07-27T10:49:06.751Z,70.53
2017-07-27T10:49:32.283Z,70.95
2017-07-27T10:49:57.733Z,71.01
2017-07-27T10:50:23.220Z,71.34
2017-07-27T10:50:48.674Z,70.95
2017-07-27T10:51:14.121Z,71.72
2017-07-27T10:51:39.609Z,72.21
2017-07-27T10:52:05.093Z,72.21
2017-07-27T10:52:30.564Z,70.66
2017-07-27T10:52:56.103Z,70.27
2017-07-27T10:53:21.556Z,69.69
2017-07-27T10:53:47.026Z,68.63
2017-07-27T10:54:12.498Z,68.43
2017-07-27T10:54:38.000Z,68.63
2017-07-27T10:55:03.476Z,68.43
2017-07-27T10:55:28.959Z,69.01
2017-07-27T10:55:54.439Z,68.91
2017-07-27T10:56:19.894Z,68.82
2017-07-27T10:56:45.377Z,68.91
2017-07-27T10:57:10.874Z,69.21
2017-07-27T10:57:36.315Z,68.73
2017-07-27T10:58:01.779Z,68.91
2017-07-27T10:58:27.307Z,69.5
2017-07-27T10:58:52.773Z,69.21
2017-07-27T10:59:18.296Z,68.33
2017-07-27T10:59:43.834Z,67.85
2017-07-27T11:00:09.270Z,67.76
2017-07-27T11:00:34.730Z,67.37
2017-07-27T11:01:00.293Z,66.6